Time;durP1;ratioP1;P1;durP2;ratioP2;P2;SDS_P1;SDS_P2;PMS_P1;PMS_P2;Temp;Humidity;BMP_temperature;BMP_pressure;BME280_temperature;BME280_humidity;BME280_pressure;Samples;Min_cycle;Max_cycle;Signal;HPM_P1;HPM_P2
2022/10/24 00:00:42;;;;;;;8.45;4.25;;;21.10;62.90;;;;;;5034203;28;20210;-71
2022/10/24 00:03:10;;;;;;;6.65;4.45;;;21.10;63.00;;;;;;5034331;28;20224;-71
2022/10/24 00:05:41;;;;;;;6.75;4.35;;;21.10;63.10;;;;;;5033920;28;20204;-71
2022/10/24 00:08:08;;;;;;;6.75;4.93;;;21.00;63.00;;;;;;5033894;28;20242;-71
2022/10/24 00:10:36;;;;;;;5.72;4.25;;;21.10;63.00;;;;;;5033559;28;20200;-71
2022/10/24 00:13:02;;;;;;;7.35;4.25;;;21.10;63.10;;;;;;5034894;28;20192;-71
2022/10/24 00:15:30;;;;;;;7.20;4.30;;;21.10;63.10;;;;;;5032807;28;20566;-71
2022/10/24 00:17:56;;;;;;;7.00;4.75;;;21.00;63.10;;;;;;5033558;28;20235;-71
2022/10/24 00:20:24;;;;;;;5.55;4.18;;;21.00;63.10;;;;;;5017532;28;20688;-71
2022/10/24 00:22:52;;;;;;;9.10;4.10;;;21.00;63.20;;;;;;5033518;28;20609;-71
2022/10/24 00:25:19;;;;;;;5.72;4.50;;;21.00;63.20;;;;;;5033418;28;20200;-71
2022/10/24 00:27:46;;;;;;;5.78;3.90;;;21.00;63.30;;;;;;5033374;28;20224;-71
2022/10/24 00:30:13;;;;;;;6.60;4.03;;;21.00;63.40;;;;;;5033365;28;20234;-71
2022/10/24 00:32:40;;;;;;;6.10;4.22;;;21.00;64.10;;;;;;5033445;28;20200;-71
2022/10/24 00:35:08;;;;;;;7.57;4.07;;;21.00;63.30;;;;;;5033399;28;20383;-71
2022/10/24 00:37:35;;;;;;;5.82;4.13;;;21.00;63.10;;;;;;5033344;28;20258;-71
2022/10/24 00:40:04;;;;;;;4.30;3.85;;;20.90;63.10;;;;;;5033663;28;20200;-71
2022/10/24 00:42:31;;;;;;;6.43;4.32;;;20.90;63.20;;;;;;5034154;28;20265;-71
2022/10/24 00:44:58;;;;;;;5.57;4.13;;;20.90;63.30;;;;;;5034124;28;20639;-71
2022/10/24 00:47:26;;;;;;;5.50;3.92;;;20.90;63.20;;;;;;5033633;28;20223;-71
2022/10/24 00:49:59;;;;;;;5.82;3.83;;;20.90;63.50;;;;;;5034649;28;20196;-71
2022/10/24 00:52:29;;;;;;;4.45;3.88;;;20.80;63.30;;;;;;5032907;28;20287;-71
2022/10/24 00:54:56;;;;;;;8.68;3.92;;;20.80;63.40;;;;;;5033174;28;20208;-71
2022/10/24 00:57:25;;;;;;;4.85;3.58;;;20.80;63.30;;;;;;5033194;28;20288;-71
2022/10/24 00:59:55;;;;;;;6.07;3.60;;;20.80;63.50;;;;;;5033374;28;20204;-71
2022/10/24 01:02:22;;;;;;;6.00;3.70;;;20.80;63.20;;;;;;5035218;28;20522;-71
2022/10/24 01:04:49;;;;;;;5.72;4.05;;;20.80;63.20;;;;;;5035481;28;20188;-71
2022/10/24 01:07:23;;;;;;;5.28;3.75;;;20.80;63.40;;;;;;5033354;28;20216;-71
2022/10/24 01:10:00;;;;;;;4.70;3.58;;;20.80;63.50;;;;;;5034153;28;20545;-71
2022/10/24 01:12:35;;;;;;;5.43;3.97;;;20.70;63.40;;;;;;5033447;28;20188;-71
2022/10/24 01:15:05;;;;;;;6.68;4.00;;;20.70;63.40;;;;;;5033112;28;20191;-71
2022/10/24 01:17:35;;;;;;;4.15;3.58;;;20.70;63.50;;;;;;5033214;28;20323;-71
2022/10/24 01:20:20;;;;;;;5.75;3.65;;;20.70;63.50;;;;;;5033643;28;20223;-70
2022/10/24 01:22:59;;;;;;;3.83;3.35;;;20.70;63.70;;;;;;5033200;28;20287;-70
2022/10/24 01:25:31;;;;;;;5.65;3.55;;;20.70;63.50;;;;;;5033171;28;20203;-70
2022/10/24 01:28:01;;;;;;;5.88;3.63;;;20.60;63.60;;;;;;5032775;28;20211;-70
2022/10/24 01:30:30;;;;;;;5.93;3.45;;;20.60;63.70;;;;;;5032841;28;20200;-70
2022/10/24 01:32:58;;;;;;;5.82;3.75;;;20.60;63.80;;;;;;5033825;28;20199;-70
2022/10/24 01:35:34;;;;;;;4.90;3.30;;;20.70;63.90;;;;;;5032767;28;20200;-70
2022/10/24 01:38:04;;;;;;;5.03;3.40;;;20.60;63.70;;;;;;5033550;28;20269;-70
2022/10/24 01:40:33;;;;;;;4.65;3.50;;;20.60;63.90;;;;;;5033746;28;20603;-70
2022/10/24 01:43:03;;;;;;;5.53;3.10;;;20.60;64.00;;;;;;5032334;28;20198;-70
2022/10/24 01:45:33;;;;;;;5.13;3.20;;;20.60;63.80;;;;;;5032496;28;20222;-70
2022/10/24 01:48:02;;;;;;;4.10;3.10;;;20.50;63.80;;;;;;5033352;28;20204;-70
2022/10/24 01:50:29;;;;;;;5.15;3.17;;;20.50;63.80;;;;;;5034127;28;20598;-70
2022/10/24 01:52:56;;;;;;;5.97;3.33;;;20.50;64.00;;;;;;5033503;28;20206;-70
2022/10/24 01:55:23;;;;;;;5.65;3.45;;;20.50;63.80;;;;;;5032707;28;20251;-71
2022/10/24 01:57:50;;;;;;;4.60;3.00;;;20.50;64.00;;;;;;5032964;28;20640;-71
2022/10/24 02:00:19;;;;;;;4.78;3.30;;;20.50;63.80;;;;;;5032902;28;20250;-71
2022/10/24 02:02:48;;;;;;;3.75;3.03;;;20.50;63.90;;;;;;5032362;28;20196;-71
2022/10/24 02:05:17;;;;;;;3.97;3.10;;;20.50;64.00;;;;;;5032114;28;20192;-71
2022/10/24 02:07:45;;;;;;;6.45;3.10;;;20.50;63.80;;;;;;5032011;28;20610;-71
2022/10/24 02:10:13;;;;;;;6.47;3.05;;;20.50;63.90;;;;;;5015678;28;20209;-71
2022/10/24 02:12:42;;;;;;;5.00;3.13;;;20.50;63.90;;;;;;5032040;28;20204;-71
2022/10/24 02:15:12;;;;;;;3.40;2.90;;;20.50;64.80;;;;;;5033020;28;20250;-71
2022/10/24 02:17:40;;;;;;;5.30;3.00;;;20.50;63.90;;;;;;5032056;28;20234;-71
2022/10/24 02:20:10;;;;;;;4.72;3.10;;;20.50;64.00;;;;;;5032318;28;20232;-71
2022/10/24 02:22:40;;;;;;;5.22;3.38;;;20.40;63.80;;;;;;5032022;28;20247;-71
2022/10/24 02:25:09;;;;;;;3.72;2.85;;;20.40;63.80;;;;;;5033607;28;20556;-71
2022/10/24 02:27:39;;;;;;;4.15;2.85;;;20.40;63.80;;;;;;5031968;28;20212;-71
2022/10/24 02:30:08;;;;;;;4.63;2.95;;;20.40;63.80;;;;;;5032174;28;20196;-71
2022/10/24 02:32:36;;;;;;;6.65;3.17;;;20.40;63.70;;;;;;5031920;28;20270;-71
2022/10/24 02:35:04;;;;;;;5.82;3.17;;;20.40;63.80;;;;;;5032180;28;20200;-71
2022/10/24 02:37:33;;;;;;;4.75;2.75;;;20.40;63.60;;;;;;5031950;28;20274;-71
2022/10/24 02:40:00;;;;;;;5.43;2.95;;;20.40;63.60;;;;;;5035950;28;20200;-71
2022/10/24 02:42:27;;;;;;;3.60;2.88;;;20.40;63.70;;;;;;5036889;28;20196;-71
2022/10/24 02:44:54;;;;;;;4.13;2.60;;;20.40;63.60;;;;;;5035797;28;20196;-71
2022/10/24 02:47:22;;;;;;;3.75;2.78;;;20.40;63.60;;;;;;5035505;28;20671;-71
2022/10/24 02:49:49;;;;;;;5.68;2.78;;;20.40;63.60;;;;;;5036425;28;20204;-71
2022/10/24 02:52:16;;;;;;;4.05;2.75;;;20.40;63.60;;;;;;5035153;28;20573;-71
2022/10/24 02:54:45;;;;;;;3.58;2.85;;;20.40;63.50;;;;;;5035673;28;20223;-71
2022/10/24 02:57:12;;;;;;;3.97;3.00;;;20.40;63.50;;;;;;5035450;28;20224;-71
2022/10/24 02:59:39;;;;;;;3.13;2.47;;;20.40;63.50;;;;;;5035994;28;20212;-71
2022/10/24 03:02:06;;;;;;;4.82;2.78;;;20.40;63.40;;;;;;5036303;28;20196;-71
2022/10/24 03:04:32;;;;;;;5.00;2.63;;;20.40;63.40;;;;;;5035846;28;20206;-71
2022/10/24 03:06:59;;;;;;;4.47;2.58;;;20.40;63.20;;;;;;5036574;28;20215;-71
2022/10/24 03:09:26;;;;;;;6.30;2.60;;;20.40;63.40;;;;;;5037050;28;20192;-71
2022/10/24 03:11:55;;;;;;;3.80;2.38;;;20.40;63.50;;;;;;5035270;28;20228;-71
2022/10/24 03:14:22;;;;;;;4.60;2.83;;;20.40;63.70;;;;;;5036404;28;20242;-71
2022/10/24 03:16:49;;;;;;;4.30;2.45;;;20.40;63.60;;;;;;5034823;28;20215;-71
2022/10/24 03:19:17;;;;;;;3.58;2.65;;;20.40;63.70;;;;;;5034950;28;20694;-71
2022/10/24 03:21:44;;;;;;;3.20;2.90;;;20.40;64.30;;;;;;5034983;28;20282;-71
2022/10/24 03:24:10;;;;;;;2.75;2.42;;;20.40;63.70;;;;;;5035251;28;20196;-71
2022/10/24 03:26:37;;;;;;;3.67;2.67;;;20.50;63.50;;;;;;5018707;28;20232;-71
2022/10/24 03:29:06;;;;;;;3.22;2.60;;;20.60;63.50;;;;;;5035184;28;20219;-71
2022/10/24 03:31:33;;;;;;;4.07;2.83;;;20.60;63.40;;;;;;5034818;28;20247;-70
2022/10/24 03:34:00;;;;;;;5.25;2.90;;;20.60;63.40;;;;;;5034842;28;20246;-70
2022/10/24 03:36:27;;;;;;;3.70;2.88;;;20.60;63.10;;;;;;5036240;28;20254;-71
2022/10/24 03:38:55;;;;;;;3.58;2.83;;;20.70;63.00;;;;;;5034971;28;20232;-71
2022/10/24 03:41:22;;;;;;;3.72;2.63;;;20.70;62.80;;;;;;5035968;28;20724;-71
2022/10/24 03:43:49;;;;;;;3.15;2.65;;;20.70;62.80;;;;;;5034724;28;20226;-71
2022/10/24 03:46:17;;;;;;;4.43;2.50;;;20.80;62.80;;;;;;5035956;28;20188;-71
2022/10/24 03:48:44;;;;;;;3.53;2.70;;;20.80;62.50;;;;;;5035011;28;20216;-71
2022/10/24 03:51:11;;;;;;;5.78;2.97;;;20.80;62.50;;;;;;5033570;28;20199;-71
2022/10/24 03:53:38;;;;;;;3.38;2.90;;;20.80;62.30;;;;;;5034568;28;20227;-71
2022/10/24 03:56:05;;;;;;;4.80;2.47;;;20.80;62.20;;;;;;5034362;28;20298;-71
2022/10/24 03:58:32;;;;;;;4.47;2.70;;;20.80;62.20;;;;;;5033992;28;20220;-71
2022/10/24 04:00:59;;;;;;;3.25;2.70;;;20.90;62.20;;;;;;5034258;28;20557;-71
2022/10/24 04:03:27;;;;;;;5.53;2.70;;;20.90;61.90;;;;;;5034204;28;20208;-70
2022/10/24 04:05:54;;;;;;;3.70;2.40;;;20.90;61.90;;;;;;5035095;28;20286;-70
2022/10/24 04:08:21;;;;;;;3.20;2.17;;;20.90;62.10;;;;;;5034183;28;20219;-70
2022/10/24 04:10:49;;;;;;;3.40;2.40;;;20.90;62.00;;;;;;5035162;28;20610;-70
2022/10/24 04:13:16;;;;;;;4.07;2.70;;;20.90;62.10;;;;;;5034872;28;20322;-71
2022/10/24 04:15:44;;;;;;;4.32;2.50;;;20.90;61.90;;;;;;5034693;28;20257;-70
2022/10/24 04:18:11;;;;;;;2.80;2.22;;;20.90;61.90;;;;;;5034839;28;20224;-70
2022/10/24 04:20:39;;;;;;;3.78;2.40;;;20.90;61.90;;;;;;5034669;28;20219;-70
2022/10/24 04:23:06;;;;;;;4.88;2.58;;;20.90;61.90;;;;;;5034448;28;20208;-71
2022/10/24 04:25:33;;;;;;;3.05;2.63;;;20.90;62.20;;;;;;5033562;28;20258;-70
2022/10/24 04:28:00;;;;;;;5.20;2.58;;;20.90;62.30;;;;;;5033305;28;20586;-71
2022/10/24 04:30:28;;;;;;;5.72;2.50;;;20.90;62.30;;;;;;5033493;28;20226;-70
2022/10/24 04:32:55;;;;;;;5.07;2.75;;;20.90;62.80;;;;;;5033114;28;20196;-70
2022/10/24 04:35:22;;;;;;;4.05;2.67;;;20.90;62.40;;;;;;5033432;28;20200;-70
2022/10/24 04:37:51;;;;;;;3.40;2.40;;;20.90;62.30;;;;;;5034338;28;20216;-70
2022/10/24 04:40:18;;;;;;;3.70;2.50;;;20.90;62.60;;;;;;5033471;28;20246;-71
2022/10/24 04:42:46;;;;;;;6.38;2.40;;;20.90;62.80;;;;;;5071731;22;20255;-70
2022/10/24 04:45:12;;;;;;;3.90;2.53;;;20.90;62.30;;;;;;5035084;28;20218;-69
2022/10/24 04:47:40;;;;;;;4.40;2.55;;;20.90;62.60;;;;;;5016662;28;20220;-69
2022/10/24 04:50:08;;;;;;;3.20;2.35;;;20.90;62.80;;;;;;5034301;28;20188;-69
2022/10/24 04:52:35;;;;;;;6.55;2.40;;;20.90;62.90;;;;;;5016988;28;20200;-68
2022/10/24 04:55:04;;;;;;;5.25;2.47;;;20.90;63.40;;;;;;5016879;28;20210;-68
2022/10/24 04:57:31;;;;;;;4.75;2.53;;;20.90;64.50;;;;;;5016490;28;20219;-69
2022/10/24 04:59:58;;;;;;;5.45;2.60;;;20.90;64.10;;;;;;5016659;28;20232;-69
2022/10/24 05:02:25;;;;;;;5.45;2.40;;;20.90;63.40;;;;;;5016348;28;20262;-69
2022/10/24 05:04:52;;;;;;;6.43;2.60;;;20.80;63.50;;;;;;5016706;28;20208;-69
2022/10/24 05:07:20;;;;;;;6.53;2.70;;;20.90;63.50;;;;;;5016672;28;20220;-68
2022/10/24 05:09:47;;;;;;;5.60;2.30;;;20.90;63.60;;;;;;5017209;28;20218;-68
2022/10/24 05:12:15;;;;;;;4.22;2.50;;;20.80;63.20;;;;;;5031481;28;20211;-68
2022/10/24 05:14:45;;;;;;;4.88;2.25;;;20.80;63.40;;;;;;5021397;28;20247;-68
2022/10/24 05:17:12;;;;;;;3.83;2.17;;;20.90;63.60;;;;;;5001548;28;20224;-68
2022/10/24 05:19:40;;;;;;;3.03;2.33;;;20.80;63.50;;;;;;5016688;28;20227;-68
2022/10/24 05:22:07;;;;;;;3.85;2.30;;;20.80;63.50;;;;;;5016243;28;20203;-68
2022/10/24 05:24:33;;;;;;;4.03;2.35;;;20.80;63.50;;;;;;5016515;28;20234;-69
2022/10/24 05:27:00;;;;;;;8.00;2.50;;;20.80;63.50;;;;;;5016694;28;20614;-69
2022/10/24 05:29:29;;;;;;;4.20;2.42;;;20.80;63.50;;;;;;5016756;28;20187;-69
2022/10/24 05:31:56;;;;;;;5.00;2.50;;;20.70;63.30;;;;;;5016592;28;20666;-69
2022/10/24 05:34:23;;;;;;;4.03;2.10;;;20.70;63.40;;;;;;5016712;28;20200;-69
2022/10/24 05:36:50;;;;;;;3.38;2.10;;;20.70;63.40;;;;;;5033691;28;20582;-69
2022/10/24 05:39:17;;;;;;;6.07;2.70;;;20.70;63.40;;;;;;5033387;28;20218;-68
2022/10/24 05:41:44;;;;;;;3.80;2.28;;;20.70;63.40;;;;;;5016813;28;20204;-68
2022/10/24 05:44:11;;;;;;;3.97;2.20;;;20.70;63.30;;;;;;5016931;28;20241;-68
2022/10/24 05:46:40;;;;;;;3.70;2.30;;;20.80;63.20;;;;;;5015875;28;20572;-68
2022/10/24 05:49:07;;;;;;;4.68;2.60;;;20.80;63.00;;;;;;5015823;28;20195;-68
2022/10/24 05:51:34;;;;;;;4.10;2.40;;;20.80;63.10;;;;;;5016073;28;20227;-68
2022/10/24 05:54:01;;;;;;;5.30;2.42;;;20.80;62.80;;;;;;5016191;28;20250;-68
2022/10/24 05:56:28;;;;;;;3.67;2.00;;;20.80;62.60;;;;;;5047946;22;20634;-67
2022/10/24 05:58:56;;;;;;;4.72;2.45;;;20.90;62.60;;;;;;4999934;28;20235;-67
2022/10/24 06:01:23;;;;;;;4.43;2.20;;;20.90;62.50;;;;;;4996341;28;20204;-67
2022/10/24 06:03:52;;;;;;;3.97;2.22;;;20.90;62.40;;;;;;5013873;28;20197;-67
2022/10/24 06:06:19;;;;;;;2.97;2.10;;;20.90;62.20;;;;;;5013167;28;20193;-67
2022/10/24 06:08:46;;;;;;;5.30;2.40;;;20.90;62.20;;;;;;4995682;28;20646;-67
2022/10/24 06:11:14;;;;;;;3.60;2.45;;;20.90;61.90;;;;;;5013053;28;20197;-67
2022/10/24 06:13:41;;;;;;;3.85;2.13;;;20.90;62.00;;;;;;5015034;28;20267;-67
2022/10/24 06:16:08;;;;;;;4.93;2.40;;;21.00;62.00;;;;;;5016853;28;20192;-67
2022/10/24 06:18:35;;;;;;;3.97;2.30;;;20.90;61.90;;;;;;4998935;28;20247;-67
2022/10/24 06:21:05;;;;;;;3.03;2.00;;;21.00;62.00;;;;;;4999207;28;20193;-68
2022/10/24 06:23:33;;;;;;;4.55;2.30;;;20.90;61.90;;;;;;4998986;28;20188;-67
2022/10/24 06:26:00;;;;;;;4.65;2.25;;;21.00;61.90;;;;;;5016564;28;20284;-67
2022/10/24 06:31:05;;;;;;;3.30;2.00;;;20.90;61.80;;;;;;5056505;28;20207;-68
2022/10/24 06:33:33;;;;;;;4.00;2.35;;;20.90;61.90;;;;;;5039147;28;20633;-68
2022/10/24 06:36:00;;;;;;;3.00;2.10;;;20.90;61.80;;;;;;5039602;28;20654;-68
2022/10/24 06:38:28;;;;;;;4.25;2.20;;;20.90;61.80;;;;;;5056977;28;20207;-67
2022/10/24 06:40:56;;;;;;;3.92;2.20;;;21.00;61.90;;;;;;5057999;28;20202;-67
2022/10/24 06:43:23;;;;;;;4.78;2.15;;;20.90;61.80;;;;;;5039850;28;20202;-67
2022/10/24 06:45:50;;;;;;;3.47;2.20;;;20.90;61.90;;;;;;5039303;28;20195;-67
2022/10/24 06:48:17;;;;;;;5.10;2.22;;;20.90;61.80;;;;;;5038890;28;20228;-68
2022/10/24 06:50:44;;;;;;;3.80;2.13;;;21.00;61.80;;;;;;5038923;28;20218;-68
2022/10/24 06:53:11;;;;;;;2.63;2.03;;;20.90;61.70;;;;;;5006218;28;20218;-68
2022/10/24 06:55:40;;;;;;;2.75;2.00;;;20.90;61.70;;;;;;5056305;28;20645;-68
2022/10/24 06:58:07;;;;;;;4.57;2.28;;;20.90;61.80;;;;;;5038970;28;20215;-68
2022/10/24 07:00:34;;;;;;;4.05;2.38;;;20.90;61.70;;;;;;5039013;28;20191;-69
2022/10/24 07:03:01;;;;;;;5.10;2.20;;;20.90;61.70;;;;;;5038535;28;20219;-68
2022/10/24 07:05:28;;;;;;;2.53;2.05;;;21.00;62.80;;;;;;5038439;28;20191;-67
2022/10/24 07:07:55;;;;;;;4.70;2.30;;;20.90;61.80;;;;;;5038393;28;20265;-67
2022/10/24 07:10:22;;;;;;;5.35;2.45;;;20.90;61.80;;;;;;5038501;28;20244;-67
2022/10/24 07:12:51;;;;;;;4.40;2.50;;;20.90;61.80;;;;;;5056299;28;20187;-67
2022/10/24 07:15:17;;;;;;;4.15;2.10;;;20.90;61.80;;;;;;5097470;22;20274;-71
2022/10/24 07:17:45;;;;;;;3.15;2.13;;;20.90;61.80;;;;;;5036418;28;20208;-71
2022/10/24 07:20:12;;;;;;;7.28;2.20;;;20.90;61.90;;;;;;5019095;28;20239;-71
2022/10/24 07:22:39;;;;;;;3.10;2.00;;;20.90;61.80;;;;;;5019650;28;20200;-71
2022/10/24 07:25:07;;;;;;;4.80;2.10;;;20.90;61.90;;;;;;5036621;28;20188;-71
2022/10/24 07:27:34;;;;;;;3.63;2.38;;;20.90;61.90;;;;;;5018932;28;20278;-72
2022/10/24 07:30:03;;;;;;;4.20;2.00;;;20.90;62.00;;;;;;5019071;28;20196;-71
2022/10/24 07:32:30;;;;;;;3.10;2.03;;;20.90;62.00;;;;;;5038599;28;20184;-72
2022/10/24 07:34:58;;;;;;;4.80;2.10;;;20.90;62.00;;;;;;5038041;28;20272;-71
2022/10/24 07:37:25;;;;;;;3.03;1.88;;;20.90;62.10;;;;;;5019284;28;20215;-72
2022/10/24 07:39:52;;;;;;;4.63;2.15;;;20.90;62.10;;;;;;5018705;28;20597;-71
2022/10/24 07:42:20;;;;;;;4.05;2.22;;;20.80;62.10;;;;;;5018723;28;20655;-71
2022/10/24 07:44:46;;;;;;;3.75;1.90;;;20.90;62.20;;;;;;5018784;28;20204;-71
2022/10/24 07:47:15;;;;;;;3.22;2.00;;;20.90;62.20;;;;;;5018417;28;20220;-71
2022/10/24 07:49:42;;;;;;;2.35;1.90;;;20.80;62.20;;;;;;5018956;28;20200;-71
2022/10/24 07:52:09;;;;;;;5.47;1.92;;;20.80;62.20;;;;;;5035981;28;20192;-71
2022/10/24 07:54:38;;;;;;;2.40;1.95;;;20.80;62.20;;;;;;5017825;28;20373;-71
2022/10/24 07:57:05;;;;;;;4.03;2.10;;;20.80;62.20;;;;;;5017316;28;20216;-71
2022/10/24 07:59:32;;;;;;;3.00;1.80;;;20.90;62.30;;;;;;5017948;28;20270;-71
2022/10/24 08:01:59;;;;;;;2.42;2.00;;;20.90;62.40;;;;;;5017578;28;20673;-71
2022/10/24 08:04:29;;;;;;;2.60;1.80;;;20.90;62.40;;;;;;5035098;28;20196;-71
2022/10/24 08:06:56;;;;;;;2.05;1.85;;;20.90;62.20;;;;;;5017609;28;20204;-71
2022/10/24 08:09:23;;;;;;;2.85;1.90;;;20.90;62.00;;;;;;5017572;28;20200;-71
2022/10/24 08:11:50;;;;;;;2.95;2.05;;;21.00;61.90;;;;;;5035125;28;20675;-71
2022/10/24 08:14:18;;;;;;;3.65;1.90;;;21.00;61.80;;;;;;5033760;28;20299;-70
2022/10/24 08:16:45;;;;;;;3.88;2.00;;;21.00;61.70;;;;;;5017184;28;20200;-70
2022/10/24 08:19:13;;;;;;;2.08;1.65;;;21.00;61.60;;;;;;5017444;28;20335;-70
2022/10/24 08:21:42;;;;;;;2.85;1.70;;;21.00;61.40;;;;;;5016980;28;20223;-70
2022/10/24 08:24:09;;;;;;;2.40;1.77;;;21.00;61.40;;;;;;5016921;28;20601;-70
2022/10/24 08:26:39;;;;;;;2.85;1.90;;;21.00;61.20;;;;;;5017042;28;20250;-70
2022/10/24 08:29:09;;;;;;;3.65;2.25;;;21.00;61.10;;;;;;5017213;28;20192;-70
2022/10/24 08:31:37;;;;;;;1.90;1.70;;;21.00;61.30;;;;;;5034957;28;20623;-70
2022/10/24 08:34:04;;;;;;;4.13;1.83;;;21.00;61.30;;;;;;5017368;28;20200;-70
2022/10/24 08:36:33;;;;;;;2.55;1.90;;;21.00;61.30;;;;;;5016267;28;20196;-70
2022/10/24 08:39:01;;;;;;;4.32;2.30;;;21.00;61.30;;;;;;5016988;28;20220;-70
2022/10/24 08:41:30;;;;;;;3.25;2.13;;;21.00;61.20;;;;;;5017056;28;20204;-70
2022/10/24 08:43:59;;;;;;;3.30;1.95;;;21.10;61.30;;;;;;5017617;28;20227;-71
2022/10/24 08:46:44;;;;;;;2.70;1.80;;;21.10;61.30;;;;;;5016999;28;20200;-71
2022/10/24 08:49:17;;;;;;;2.45;1.70;;;21.10;61.30;;;;;;5016670;28;20199;-71
2022/10/24 08:51:47;;;;;;;3.00;1.60;;;21.10;61.30;;;;;;5034491;28;20242;-71
2022/10/24 08:54:17;;;;;;;2.70;1.85;;;21.10;61.30;;;;;;5016943;28;20207;-71
2022/10/24 08:56:43;;;;;;;1.88;1.67;;;21.10;61.30;;;;;;5034837;28;20191;-71
2022/10/24 08:59:11;;;;;;;3.08;1.73;;;21.10;61.30;;;;;;5016768;28;20675;-71
2022/10/24 09:01:41;;;;;;;4.15;2.08;;;21.10;61.30;;;;;;5016947;28;20235;-71
2022/10/24 09:04:09;;;;;;;2.88;1.92;;;21.10;61.20;;;;;;5017391;28;20193;-71
2022/10/24 09:06:36;;;;;;;3.55;2.00;;;21.10;61.20;;;;;;5024134;28;20191;-71
2022/10/24 09:09:05;;;;;;;2.75;1.90;;;21.20;61.20;;;;;;5057248;28;20210;-71
2022/10/24 09:11:39;;;;;;;2.50;1.80;;;21.10;61.10;;;;;;5020642;28;20543;-71
2022/10/24 09:14:11;;;;;;;2.10;1.88;;;21.10;61.10;;;;;;5017065;28;20211;-71
2022/10/24 09:16:38;;;;;;;2.53;1.75;;;21.10;61.10;;;;;;5016691;28;20192;-71
2022/10/24 09:19:05;;;;;;;3.97;2.00;;;21.20;61.20;;;;;;5016669;28;20656;-71
2022/10/24 09:21:32;;;;;;;3.55;1.98;;;21.20;61.20;;;;;;5016820;28;20200;-70
2022/10/24 09:23:59;;;;;;;3.25;2.00;;;21.20;61.20;;;;;;5018103;28;20196;-70
2022/10/24 09:26:27;;;;;;;4.80;1.92;;;21.20;61.90;;;;;;5017820;28;20257;-71
2022/10/24 09:28:56;;;;;;;2.97;1.80;;;21.20;61.00;;;;;;5016590;28;20220;-71
2022/10/24 09:31:24;;;;;;;2.80;1.80;;;21.20;60.90;;;;;;5017049;28;20206;-71
2022/10/24 09:33:52;;;;;;;3.22;1.85;;;21.20;60.80;;;;;;5016531;28;20566;-70
2022/10/24 09:36:20;;;;;;;3.10;1.70;;;21.20;60.80;;;;;;5015942;28;20218;-70
2022/10/24 09:38:48;;;;;;;2.50;1.75;;;21.20;60.70;;;;;;5015956;28;20224;-70
2022/10/24 09:41:17;;;;;;;2.65;1.92;;;21.20;60.70;;;;;;5032963;28;20223;-70
2022/10/24 09:43:47;;;;;;;3.50;1.92;;;21.20;60.70;;;;;;5016172;28;20204;-70
2022/10/24 09:46:16;;;;;;;3.17;1.83;;;21.20;60.70;;;;;;5016149;28;20279;-70
2022/10/24 09:48:49;;;;;;;3.67;1.90;;;21.20;60.80;;;;;;5019397;28;20713;-70
2022/10/24 09:51:22;;;;;;;4.00;1.85;;;21.20;60.80;;;;;;5020161;28;20200;-70
2022/10/24 09:54:07;;;;;;;3.90;1.83;;;21.20;60.80;;;;;;5019876;28;20636;-71
2022/10/24 09:56:36;;;;;;;2.47;1.95;;;21.20;61.00;;;;;;5019899;28;20204;-71
2022/10/24 09:59:26;;;;;;;4.22;1.92;;;21.20;60.90;;;;;;5019486;28;20204;-71
2022/10/24 10:01:58;;;;;;;1.80;1.60;;;21.20;60.90;;;;;;5019637;28;20196;-71
2022/10/24 10:04:25;;;;;;;3.45;2.17;;;21.20;61.00;;;;;;5019163;28;20279;-71
2022/10/24 10:06:52;;;;;;;3.33;2.00;;;21.20;61.00;;;;;;5019311;28;20279;-71
2022/10/24 10:09:24;;;;;;;2.58;1.83;;;21.20;61.00;;;;;;5019564;28;20206;-71
2022/10/24 10:11:55;;;;;;;2.03;1.80;;;21.20;61.10;;;;;;5019326;28;20189;-70
2022/10/24 10:14:24;;;;;;;2.58;1.90;;;21.20;61.10;;;;;;5019162;28;20669;-70
2022/10/24 10:16:59;;;;;;;2.35;1.60;;;21.20;61.00;;;;;;5019136;28;20200;-70
2022/10/24 10:19:28;;;;;;;3.20;1.70;;;21.20;61.00;;;;;;5019004;28;20191;-70
2022/10/24 10:21:56;;;;;;;2.67;1.65;;;21.20;61.00;;;;;;5019110;28;20239;-70
2022/10/24 10:24:25;;;;;;;3.17;2.10;;;21.20;61.00;;;;;;5019907;28;20192;-70
2022/10/24 10:26:52;;;;;;;2.83;1.70;;;21.20;61.00;;;;;;5036930;28;20275;-70
2022/10/24 10:29:23;;;;;;;3.03;2.00;;;21.20;60.80;;;;;;5036677;28;20650;-70
2022/10/24 10:31:52;;;;;;;3.72;1.60;;;21.20;60.80;;;;;;5019167;28;20220;-70
2022/10/24 10:34:23;;;;;;;2.10;1.52;;;21.20;60.80;;;;;;5019448;28;20295;-70
2022/10/24 10:37:09;;;;;;;4.32;2.00;;;21.30;60.90;;;;;;5018669;28;20278;-70
2022/10/24 10:39:46;;;;;;;2.28;1.77;;;21.30;60.70;;;;;;5018837;28;20212;-70
2022/10/24 10:42:16;;;;;;;2.50;1.80;;;21.30;60.70;;;;;;5018673;28;20213;-71
2022/10/24 10:44:49;;;;;;;3.55;1.73;;;21.30;60.50;;;;;;5018800;28;20223;-71
2022/10/24 10:47:22;;;;;;;1.70;1.60;;;21.30;60.30;;;;;;5018768;28;20224;-71
2022/10/24 10:49:54;;;;;;;2.40;1.50;;;21.40;60.40;;;;;;5018754;28;20188;-71
2022/10/24 10:52:24;;;;;;;2.55;1.73;;;21.40;60.20;;;;;;5018650;28;20219;-71
2022/10/24 10:55:01;;;;;;;2.35;1.60;;;21.40;60.00;;;;;;5018607;28;20565;-71
2022/10/24 10:57:30;;;;;;;3.90;1.67;;;21.40;60.00;;;;;;5018947;28;20219;-71
2022/10/24 10:59:58;;;;;;;1.95;1.70;;;21.40;60.00;;;;;;5018933;28;20220;-71
2022/10/24 11:02:37;;;;;;;2.00;1.80;;;21.40;60.00;;;;;;5018625;28;20200;-71
2022/10/24 11:05:15;;;;;;;1.90;1.70;;;21.50;60.00;;;;;;5019118;28;20200;-72
2022/10/24 11:07:44;;;;;;;3.33;1.67;;;21.50;60.00;;;;;;5019115;28;20694;-71
2022/10/24 11:10:12;;;;;;;3.90;1.73;;;21.50;59.90;;;;;;5019364;28;20557;-71
2022/10/24 11:12:40;;;;;;;2.15;1.45;;;21.50;59.90;;;;;;5018788;28;20254;-71
2022/10/24 11:15:09;;;;;;;2.97;1.90;;;21.50;59.90;;;;;;5018974;28;20204;-71
2022/10/24 11:17:39;;;;;;;2.28;1.88;;;21.50;59.90;;;;;;5019640;28;20678;-70
2022/10/24 11:20:14;;;;;;;3.05;1.50;;;21.50;59.90;;;;;;5019683;28;20216;-70
2022/10/24 11:22:43;;;;;;;3.33;1.80;;;21.50;59.70;;;;;;5019058;28;20215;-70
2022/10/24 11:25:19;;;;;;;2.90;1.50;;;21.50;59.80;;;;;;5019848;28;20204;-70
2022/10/24 11:27:49;;;;;;;2.05;1.45;;;21.50;59.70;;;;;;5038477;28;20231;-71
2022/10/24 11:30:17;;;;;;;3.05;1.63;;;21.50;59.70;;;;;;5003662;28;20541;-71
2022/10/24 11:32:47;;;;;;;3.22;1.50;;;21.50;59.60;;;;;;5036820;28;20857;-71
2022/10/24 11:35:22;;;;;;;2.20;1.60;;;21.50;59.70;;;;;;5027770;23;20230;-69
2022/10/24 11:37:50;;;;;;;1.60;1.48;;;21.50;59.70;;;;;;4999077;28;20235;-69
2022/10/24 11:40:18;;;;;;;1.80;1.70;;;21.50;59.60;;;;;;5016274;28;20275;-69
2022/10/24 11:42:47;;;;;;;1.67;1.50;;;21.50;59.60;;;;;;4998588;28;20647;-69
2022/10/24 11:45:16;;;;;;;2.00;1.60;;;21.60;59.60;;;;;;5016409;28;20709;-70
2022/10/24 11:48:05;;;;;;;2.00;1.80;;;21.60;59.60;;;;;;5016265;28;20224;-70
2022/10/24 11:50:36;;;;;;;1.92;1.70;;;21.60;59.60;;;;;;4993470;28;20201;-70
2022/10/24 11:53:06;;;;;;;1.95;1.63;;;21.60;59.50;;;;;;4998237;28;20204;-70
2022/10/24 11:55:37;;;;;;;1.52;1.42;;;21.60;59.50;;;;;;4998460;28;20228;-70
2022/10/24 11:58:07;;;;;;;3.35;1.60;;;21.60;59.50;;;;;;5016044;28;20223;-70
2022/10/24 12:00:38;;;;;;;1.50;1.40;;;21.60;59.50;;;;;;5015752;28;20243;-71
2022/10/24 12:03:52;;;;;;;3.78;1.52;;;21.60;59.30;;;;;;4998742;28;20292;-71
2022/10/24 12:06:27;;;;;;;1.70;1.60;;;21.60;59.30;;;;;;4981010;28;20212;-71
2022/10/24 12:09:40;;;;;;;2.40;1.50;;;21.60;59.30;;;;;;4998518;28;20240;-71
2022/10/24 12:12:12;;;;;;;2.20;1.60;;;21.60;59.30;;;;;;4923940;29;20250;-71
2022/10/24 12:15:00;;;;;;;1.70;1.45;;;21.60;59.30;;;;;;5009064;28;20208;-71
2022/10/24 12:17:41;;;;;;;2.00;1.50;;;21.60;59.30;;;;;;4962252;28;20220;-71
2022/10/24 12:20:13;;;;;;;2.22;1.45;;;21.60;59.30;;;;;;4999441;28;20216;-70
2022/10/24 12:22:42;;;;;;;1.98;1.42;;;21.60;59.30;;;;;;4998221;28;20628;-70
2022/10/24 12:25:19;;;;;;;1.63;1.52;;;21.70;59.40;;;;;;4999223;28;20541;-70
2022/10/24 12:27:51;;;;;;;1.92;1.58;;;21.70;59.30;;;;;;4998191;28;20585;-70
2022/10/24 12:30:20;;;;;;;2.00;1.40;;;21.70;59.30;;;;;;4998103;28;20279;-70
2022/10/24 12:32:49;;;;;;;2.35;1.45;;;21.70;59.30;;;;;;4998183;28;20197;-70
2022/10/24 12:35:47;;;;;;;2.30;1.40;;;21.70;59.30;;;;;;4997427;28;20232;-70
2022/10/24 12:38:36;;;;;;;2.13;1.58;;;21.70;59.20;;;;;;4919513;29;20246;-70
2022/10/24 12:41:05;;;;;;;2.22;1.50;;;21.70;59.20;;;;;;4990652;28;20224;-70
2022/10/24 12:43:33;;;;;;;2.53;1.40;;;21.70;59.20;;;;;;4997381;28;20228;-70
2022/10/24 12:46:03;;;;;;;1.90;1.50;;;21.70;59.20;;;;;;5014793;28;20224;-70
2022/10/24 12:48:34;;;;;;;1.88;1.42;;;21.60;59.10;;;;;;4997076;28;20279;-70
2022/10/24 12:51:03;;;;;;;1.70;1.50;;;21.70;59.30;;;;;;4997227;28;20193;-70
2022/10/24 12:53:37;;;;;;;1.45;1.35;;;21.70;59.20;;;;;;4997591;28;20247;-70
2022/10/24 12:56:13;;;;;;;1.83;1.40;;;21.70;59.10;;;;;;4997063;28;20200;-70
2022/10/24 12:58:41;;;;;;;2.10;1.50;;;21.70;59.20;;;;;;4997166;28;20224;-70
2022/10/24 13:01:11;;;;;;;1.50;1.30;;;21.70;59.20;;;;;;4996751;28;20741;-70